Manigotagan, Canada
Current Conditions -  °F | °C
As of 9:00 AM on Tuesday 21 Oct 2014 (Local Time) from CYWG Reporting Station
Clear Clear  
Wind Chill: 33°   Ceiling: Unl
Heat Index: 41°   Visibility: 15mi
Dew Point: 36°   Wind: 16mph
Humidity: 81%   Direction: 150°SSE
Pressure: 30"   Gusts: 22mph
Location:  51.1°N, 96.3°W
Report Text: CYWG 211400Z 15014G19KT 15SM SKC 05/02 A3000 RMK SLP168
Loading
Personal Weather Stations






























Interactive Weather Map
Tropical Storm Tracking
New forecast layout! Learn more

10-Day Weather Forecast

Advertisements
Track Severe Weather on mobile